sensor_id;sensor_type;location;lat;lon;timestamp;pressure;altitude;pressure_sealevel;temperature;humidity
63731;BME280;49747;51.334;6.830;2023-02-21T00:00:31;101543.88;;;10.34;93.80
63731;BME280;49747;51.334;6.830;2023-02-21T00:03:15;101545.13;;;10.43;93.48
63731;BME280;49747;51.334;6.830;2023-02-21T00:06:01;101552.81;;;10.48;93.28
63731;BME280;49747;51.334;6.830;2023-02-21T00:08:46;101548.13;;;10.37;93.83
63731;BME280;49747;51.334;6.830;2023-02-21T00:11:31;101551.38;;;10.42;94.07
63731;BME280;49747;51.334;6.830;2023-02-21T00:14:16;101542.13;;;10.49;93.68
63731;BME280;49747;51.334;6.830;2023-02-21T00:17:01;101542.97;;;10.50;93.41
63731;BME280;49747;51.334;6.830;2023-02-21T00:19:46;101548.09;;;10.53;93.06
63731;BME280;49747;51.334;6.830;2023-02-21T00:22:31;101538.69;;;10.47;93.78
63731;BME280;49747;51.334;6.830;2023-02-21T00:25:16;101548.84;;;10.25;94.47
63731;BME280;49747;51.334;6.830;2023-02-21T00:28:01;101536.16;;;10.30;93.75
63731;BME280;49747;51.334;6.830;2023-02-21T00:30:46;101550.16;;;10.48;93.62
63731;BME280;49747;51.334;6.830;2023-02-21T00:33:34;101533.31;;;10.33;93.74
63731;BME280;49747;51.334;6.830;2023-02-21T00:36:20;101542.81;;;10.37;94.25
63731;BME280;49747;51.334;6.830;2023-02-21T00:39:04;101539.91;;;10.42;94.07
63731;BME280;49747;51.334;6.830;2023-02-21T00:41:49;101544.53;;;10.38;93.83
63731;BME280;49747;51.334;6.830;2023-02-21T00:44:34;101540.88;;;10.25;94.47
63731;BME280;49747;51.334;6.830;2023-02-21T00:47:19;101550.13;;;10.33;94.92
63731;BME280;49747;51.334;6.830;2023-02-21T00:50:05;101551.50;;;9.93;96.41
63731;BME280;49747;51.334;6.830;2023-02-21T00:52:49;101548.50;;;10.15;95.28
63731;BME280;49747;51.334;6.830;2023-02-21T00:55:35;101556.97;;;10.22;95.42
63731;BME280;49747;51.334;6.830;2023-02-21T00:58:21;101550.38;;;10.29;94.98
63731;BME280;49747;51.334;6.830;2023-02-21T01:01:06;101528.88;;;10.18;95.05
63731;BME280;49747;51.334;6.830;2023-02-21T01:03:51;101548.41;;;10.32;95.12
63731;BME280;49747;51.334;6.830;2023-02-21T01:06:37;101547.09;;;10.40;94.44
63731;BME280;49747;51.334;6.830;2023-02-21T01:09:22;101538.63;;;10.33;94.73
63731;BME280;49747;51.334;6.830;2023-02-21T01:12:07;101535.22;;;10.31;94.95
63731;BME280;49747;51.334;6.830;2023-02-21T01:14:52;101542.22;;;10.32;95.35
63731;BME280;49747;51.334;6.830;2023-02-21T01:17:37;101532.84;;;10.26;95.48
63731;BME280;49747;51.334;6.830;2023-02-21T01:20:22;101528.38;;;10.27;95.13
63731;BME280;49747;51.334;6.830;2023-02-21T01:23:07;101521.34;;;10.26;95.17
63731;BME280;49747;51.334;6.830;2023-02-21T01:25:52;101515.34;;;10.22;95.14
63731;BME280;49747;51.334;6.830;2023-02-21T01:28:37;101520.81;;;10.35;95.48
63731;BME280;49747;51.334;6.830;2023-02-21T01:31:23;101520.31;;;10.28;95.00
63731;BME280;49747;51.334;6.830;2023-02-21T01:34:08;101524.06;;;10.24;96.15
63731;BME280;49747;51.334;6.830;2023-02-21T01:36:53;101521.25;;;10.27;95.94
63731;BME280;49747;51.334;6.830;2023-02-21T01:39:37;101519.28;;;10.31;95.25
63731;BME280;49747;51.334;6.830;2023-02-21T01:42:22;101513.69;;;10.35;94.96
63731;BME280;49747;51.334;6.830;2023-02-21T01:48:14;101494.84;;;10.24;95.43
63731;BME280;49747;51.334;6.830;2023-02-21T01:51:02;101505.91;;;10.32;95.50
63731;BME280;49747;51.334;6.830;2023-02-21T01:53:49;101488.63;;;10.25;95.20
63731;BME280;49747;51.334;6.830;2023-02-21T01:56:35;101507.97;;;10.27;95.82
63731;BME280;49747;51.334;6.830;2023-02-21T01:59:22;101501.09;;;10.23;95.95
63731;BME280;49747;51.334;6.830;2023-02-21T02:02:34;101508.66;;;10.15;96.02
63731;BME280;49747;51.334;6.830;2023-02-21T02:05:19;101502.97;;;10.21;95.97
63731;BME280;49747;51.334;6.830;2023-02-21T02:08:05;101496.34;;;10.14;96.32
63731;BME280;49747;51.334;6.830;2023-02-21T02:11:01;101491.88;;;10.15;96.29
63731;BME280;49747;51.334;6.830;2023-02-21T02:14:19;101495.00;;;10.21;95.50
63731;BME280;49747;51.334;6.830;2023-02-21T02:17:20;101511.41;;;10.29;95.67
63731;BME280;49747;51.334;6.830;2023-02-21T02:20:11;101474.31;;;10.12;95.41
63731;BME280;49747;51.334;6.830;2023-02-21T02:23:05;101505.72;;;10.35;94.82
63731;BME280;49747;51.334;6.830;2023-02-21T02:25:59;101507.25;;;10.40;94.78
63731;BME280;49747;51.334;6.830;2023-02-21T02:31:41;101499.06;;;10.28;95.13
63731;BME280;49747;51.334;6.830;2023-02-21T02:40:03;101494.69;;;10.27;95.33
63731;BME280;49747;51.334;6.830;2023-02-21T02:48:15;101493.69;;;10.30;94.78
63731;BME280;49747;51.334;6.830;2023-02-21T02:50:46;101471.91;;;10.23;94.53
63731;BME280;49747;51.334;6.830;2023-02-21T02:53:15;101493.47;;;10.33;94.80
63731;BME280;49747;51.334;6.830;2023-02-21T02:55:48;101497.00;;;10.33;94.80
63731;BME280;49747;51.334;6.830;2023-02-21T02:58:18;101483.47;;;10.22;94.75
63731;BME280;49747;51.334;6.830;2023-02-21T03:01:02;101494.44;;;10.32;94.54
63731;BME280;49747;51.334;6.830;2023-02-21T03:06:32;101470.81;;;10.27;94.14
63731;BME280;49747;51.334;6.830;2023-02-21T03:11:30;101467.53;;;10.22;93.70
63731;BME280;49747;51.334;6.830;2023-02-21T03:14:05;101475.94;;;10.30;94.39
63731;BME280;49747;51.334;6.830;2023-02-21T03:16:34;101481.81;;;10.35;94.13
63731;BME280;49747;51.334;6.830;2023-02-21T03:19:09;101476.69;;;10.32;93.89
63731;BME280;49747;51.334;6.830;2023-02-21T03:21:41;101478.41;;;10.33;94.44
63731;BME280;49747;51.334;6.830;2023-02-21T03:24:10;101471.38;;;10.32;93.94
63731;BME280;49747;51.334;6.830;2023-02-21T03:26:40;101473.28;;;10.30;94.14
63731;BME280;49747;51.334;6.830;2023-02-21T03:29:35;101471.91;;;10.23;94.64
63731;BME280;49747;51.334;6.830;2023-02-21T03:32:07;101466.00;;;10.18;94.57
63731;BME280;49747;51.334;6.830;2023-02-21T03:34:37;101469.09;;;10.26;94.07
63731;BME280;49747;51.334;6.830;2023-02-21T03:37:06;101485.44;;;10.34;93.62
63731;BME280;49747;51.334;6.830;2023-02-21T03:39:33;101480.13;;;10.34;94.01
63731;BME280;49747;51.334;6.830;2023-02-21T03:42:00;101478.06;;;10.24;93.82
63731;BME280;49747;51.334;6.830;2023-02-21T03:44:26;101484.75;;;10.31;93.82
63731;BME280;49747;51.334;6.830;2023-02-21T03:46:53;101481.94;;;10.34;93.51
63731;BME280;49747;51.334;6.830;2023-02-21T03:49:19;101470.47;;;10.18;93.87
63731;BME280;49747;51.334;6.830;2023-02-21T03:51:46;101469.09;;;10.26;94.35
63731;BME280;49747;51.334;6.830;2023-02-21T03:54:12;101472.44;;;10.30;93.85
63731;BME280;49747;51.334;6.830;2023-02-21T03:56:43;101463.84;;;10.25;93.67
63731;BME280;49747;51.334;6.830;2023-02-21T03:59:17;101466.34;;;10.28;93.65
63731;BME280;49747;51.334;6.830;2023-02-21T04:01:45;101462.09;;;10.25;93.55
63731;BME280;49747;51.334;6.830;2023-02-21T04:04:13;101486.00;;;10.40;93.10
63731;BME280;49747;51.334;6.830;2023-02-21T04:06:40;101479.94;;;10.38;93.24
63731;BME280;49747;51.334;6.830;2023-02-21T04:09:06;101467.59;;;10.21;93.75
63731;BME280;49747;51.334;6.830;2023-02-21T04:11:34;101465.72;;;10.23;93.59
63731;BME280;49747;51.334;6.830;2023-02-21T04:14:01;101478.31;;;10.35;93.38
63731;BME280;49747;51.334;6.830;2023-02-21T04:16:27;101480.81;;;10.38;93.41
63731;BME280;49747;51.334;6.830;2023-02-21T04:18:54;101476.91;;;10.44;93.06
63731;BME280;49747;51.334;6.830;2023-02-21T04:21:22;101474.94;;;10.47;92.88
63731;BME280;49747;51.334;6.830;2023-02-21T04:23:52;101448.59;;;10.28;92.91
63731;BME280;49747;51.334;6.830;2023-02-21T04:26:20;101468.88;;;10.45;92.42
63731;BME280;49747;51.334;6.830;2023-02-21T04:28:51;101470.06;;;10.25;93.42
63731;BME280;49747;51.334;6.830;2023-02-21T04:31:18;101479.94;;;10.38;93.41
63731;BME280;49747;51.334;6.830;2023-02-21T04:33:44;101457.25;;;10.32;92.81
63731;BME280;49747;51.334;6.830;2023-02-21T04:36:16;101468.66;;;10.48;92.46
63731;BME280;49747;51.334;6.830;2023-02-21T04:38:43;101469.97;;;10.41;93.11
63731;BME280;49747;51.334;6.830;2023-02-21T04:41:10;101477.94;;;10.41;93.32
63731;BME280;49747;51.334;6.830;2023-02-21T04:43:36;101465.44;;;10.43;92.99
63731;BME280;49747;51.334;6.830;2023-02-21T04:46:03;101479.66;;;10.42;93.05
63731;BME280;49747;51.334;6.830;2023-02-21T04:48:29;101459.91;;;10.32;93.07
63731;BME280;49747;51.334;6.830;2023-02-21T04:50:56;101470.06;;;10.40;93.28
63731;BME280;49747;51.334;6.830;2023-02-21T04:53:32;101464.09;;;10.36;93.26
63731;BME280;49747;51.334;6.830;2023-02-21T04:55:58;101442.69;;;10.23;93.71
63731;BME280;49747;51.334;6.830;2023-02-21T04:58:24;101467.88;;;10.32;93.67
63731;BME280;49747;51.334;6.830;2023-02-21T05:00:56;101469.41;;;10.36;93.72
63731;BME280;49747;51.334;6.830;2023-02-21T05:03:23;101459.91;;;10.32;93.68
63731;BME280;49747;51.334;6.830;2023-02-21T05:05:50;101461.44;;;10.36;93.42
63731;BME280;49747;51.334;6.830;2023-02-21T05:08:16;101462.88;;;10.42;93.31
63731;BME280;49747;51.334;6.830;2023-02-21T05:10:43;101466.56;;;10.39;93.45
63731;BME280;49747;51.334;6.830;2023-02-21T05:13:12;101448.31;;;10.33;92.83
63731;BME280;49747;51.334;6.830;2023-02-21T05:15:39;101463.63;;;10.44;93.11
63731;BME280;49747;51.334;6.830;2023-02-21T05:18:05;101466.00;;;10.34;93.98
63731;BME280;49747;51.334;6.830;2023-02-21T05:20:32;101462.28;;;10.36;93.50
63731;BME280;49747;51.334;6.830;2023-02-21T05:22:58;101470.75;;;10.43;93.07
63731;BME280;49747;51.334;6.830;2023-02-21T05:25:38;101474.44;;;10.41;93.57
63731;BME280;49747;51.334;6.830;2023-02-21T05:28:04;101452.03;;;10.30;93.24
63731;BME280;49747;51.334;6.830;2023-02-21T05:30:31;101467.13;;;10.14;94.39
63731;BME280;49747;51.334;6.830;2023-02-21T05:32:57;101476.69;;;10.32;93.99
63731;BME280;49747;51.334;6.830;2023-02-21T05:35:24;101479.53;;;10.29;94.30
63731;BME280;49747;51.334;6.830;2023-02-21T05:37:50;101445.50;;;10.20;94.09
63731;BME280;49747;51.334;6.830;2023-02-21T05:40:17;101475.56;;;10.36;93.67
63731;BME280;49747;51.334;6.830;2023-02-21T05:42:43;101474.88;;;10.33;93.79
63731;BME280;49747;51.334;6.830;2023-02-21T05:45:10;101468.72;;;10.32;94.06
63731;BME280;49747;51.334;6.830;2023-02-21T05:47:37;101470.06;;;10.40;93.78
63731;BME280;49747;51.334;6.830;2023-02-21T05:50:04;101452.22;;;10.27;93.68
63731;BME280;49747;51.334;6.830;2023-02-21T05:52:31;101467.31;;;10.41;93.84
63731;BME280;49747;51.334;6.830;2023-02-21T05:54:57;101467.25;;;10.43;93.74
63731;BME280;49747;51.334;6.830;2023-02-21T05:57:24;101468.88;;;10.45;93.05
63731;BME280;49747;51.334;6.830;2023-02-21T05:59:50;101460.00;;;10.45;93.56
63731;BME280;49747;51.334;6.830;2023-02-21T06:02:17;101467.75;;;10.49;92.74
63731;BME280;49747;51.334;6.830;2023-02-21T06:04:43;101459.16;;;10.44;93.22
63731;BME280;49747;51.334;6.830;2023-02-21T06:07:10;101464.19;;;10.49;93.25
63731;BME280;49747;51.334;6.830;2023-02-21T06:09:36;101437.69;;;10.33;93.10
63731;BME280;49747;51.334;6.830;2023-02-21T06:12:03;101466.22;;;10.45;93.24
63731;BME280;49747;51.334;6.830;2023-02-21T06:14:29;101450.72;;;10.38;93.25
63731;BME280;49747;51.334;6.830;2023-02-21T06:16:55;101449.28;;;10.32;93.50
63731;BME280;49747;51.334;6.830;2023-02-21T06:19:22;101466.47;;;10.41;93.65
63731;BME280;49747;51.334;6.830;2023-02-21T06:21:48;101469.03;;;10.42;93.81
63731;BME280;49747;51.334;6.830;2023-02-21T06:24:15;101447.47;;;10.32;93.35
63731;BME280;49747;51.334;6.830;2023-02-21T06:26:41;101451.19;;;10.30;93.94
63731;BME280;49747;51.334;6.830;2023-02-21T06:29:09;101459.16;;;10.30;94.00
63731;BME280;49747;51.334;6.830;2023-02-21T06:31:35;101471.59;;;10.29;94.28
63731;BME280;49747;51.334;6.830;2023-02-21T06:34:03;101465.13;;;10.33;94.32
63731;BME280;49747;51.334;6.830;2023-02-21T06:36:29;101447.91;;;10.25;93.96
63731;BME280;49747;51.334;6.830;2023-02-21T06:38:56;101455.19;;;10.21;94.09
63731;BME280;49747;51.334;6.830;2023-02-21T06:41:28;101459.56;;;10.22;94.79
63731;BME280;49747;51.334;6.830;2023-02-21T06:43:56;101462.94;;;10.26;95.36
63731;BME280;49747;51.334;6.830;2023-02-21T06:46:25;101469.91;;;9.97;96.58
63731;BME280;49747;51.334;6.830;2023-02-21T06:48:52;101458.50;;;10.10;96.11
63731;BME280;49747;51.334;6.830;2023-02-21T06:51:18;101462.94;;;10.10;96.16
63731;BME280;49747;51.334;6.830;2023-02-21T06:53:48;101471.59;;;10.14;96.54
63731;BME280;49747;51.334;6.830;2023-02-21T06:56:15;101467.97;;;10.15;96.18
63731;BME280;49747;51.334;6.830;2023-02-21T06:58:41;101477.47;;;10.19;96.17
63731;BME280;49747;51.334;6.830;2023-02-21T07:01:08;101482.63;;;10.22;96.01
63731;BME280;49747;51.334;6.830;2023-02-21T07:03:38;101467.47;;;10.08;96.64
63731;BME280;49747;51.334;6.830;2023-02-21T07:06:04;101482.63;;;10.22;96.48
63731;BME280;49747;51.334;6.830;2023-02-21T07:08:30;101481.94;;;10.18;96.59
63731;BME280;49747;51.334;6.830;2023-02-21T07:10:57;101447.50;;;9.86;97.12
63731;BME280;49747;51.334;6.830;2023-02-21T07:13:23;101453.75;;;9.85;98.37
63731;BME280;49747;51.334;6.830;2023-02-21T07:15:50;101470.22;;;10.06;97.40
63731;BME280;49747;51.334;6.830;2023-02-21T07:18:16;101459.44;;;10.09;97.45
63731;BME280;49747;51.334;6.830;2023-02-21T07:20:42;101478.94;;;10.08;97.70
63731;BME280;49747;51.334;6.830;2023-02-21T07:23:09;101476.88;;;9.83;99.33
63731;BME280;49747;51.334;6.830;2023-02-21T07:25:36;101466.34;;;9.82;99.13
63731;BME280;49747;51.334;6.830;2023-02-21T07:28:02;101443.91;;;9.72;99.09
63731;BME280;49747;51.334;6.830;2023-02-21T07:30:29;101475.63;;;10.05;98.65
63731;BME280;49747;51.334;6.830;2023-02-21T07:32:57;101480.75;;;10.08;97.72
63731;BME280;49747;51.334;6.830;2023-02-21T07:35:23;101471.69;;;9.96;98.03
63731;BME280;49747;51.334;6.830;2023-02-21T07:37:50;101481.28;;;9.99;97.74
63731;BME280;49747;51.334;6.830;2023-02-21T07:40:17;101484.19;;;10.10;97.39
63731;BME280;49747;51.334;6.830;2023-02-21T07:42:43;101462.78;;;9.97;97.11
63731;BME280;49747;51.334;6.830;2023-02-21T07:45:10;101498.31;;;10.10;97.17
63731;BME280;49747;51.334;6.830;2023-02-21T07:47:37;101467.75;;;10.03;97.39
63731;BME280;49747;51.334;6.830;2023-02-21T07:50:04;101496.50;;;10.11;97.48
63731;BME280;49747;51.334;6.830;2023-02-21T07:52:31;101492.91;;;10.12;97.54
63731;BME280;49747;51.334;6.830;2023-02-21T07:54:57;101476.84;;;9.99;97.56
63731;BME280;49747;51.334;6.830;2023-02-21T07:57:24;101479.75;;;9.95;97.87
63731;BME280;49747;51.334;6.830;2023-02-21T07:59:50;101474.94;;;10.01;98.24
63731;BME280;49747;51.334;6.830;2023-02-21T08:02:17;101491.75;;;9.86;99.10
63731;BME280;49747;51.334;6.830;2023-02-21T08:04:43;101473.47;;;9.81;99.51
63731;BME280;49747;51.334;6.830;2023-02-21T08:07:10;101473.53;;;9.80;99.22
63731;BME280;49747;51.334;6.830;2023-02-21T08:09:36;101489.00;;;9.87;100.00
63731;BME280;49747;51.334;6.830;2023-02-21T08:12:03;101489.88;;;9.88;99.96
63731;BME280;49747;51.334;6.830;2023-02-21T08:14:30;101491.50;;;9.91;99.98
63731;BME280;49747;51.334;6.830;2023-02-21T08:16:56;101488.56;;;9.95;99.31
63731;BME280;49747;51.334;6.830;2023-02-21T08:19:23;101482.69;;;9.90;99.73
63731;BME280;49747;51.334;6.830;2023-02-21T08:21:49;101494.19;;;10.05;99.20
63731;BME280;49747;51.334;6.830;2023-02-21T08:24:17;101460.66;;;9.88;98.94
63731;BME280;49747;51.334;6.830;2023-02-21T08:26:44;101469.63;;;10.01;98.59
63731;BME280;49747;51.334;6.830;2023-02-21T08:29:12;101484.34;;;10.07;98.84
63731;BME280;49747;51.334;6.830;2023-02-21T08:31:40;101473.75;;;10.07;98.37
63731;BME280;49747;51.334;6.830;2023-02-21T08:34:07;101474.69;;;10.06;98.27
63731;BME280;49747;51.334;6.830;2023-02-21T08:36:37;101489.22;;;10.15;98.27
63731;BME280;49747;51.334;6.830;2023-02-21T08:39:05;101470.41;;;10.03;98.02
63731;BME280;49747;51.334;6.830;2023-02-21T08:41:42;101487.00;;;10.07;97.98
63731;BME280;49747;51.334;6.830;2023-02-21T08:44:11;101487.78;;;9.93;98.01
63731;BME280;49747;51.334;6.830;2023-02-21T08:46:38;101491.38;;;10.08;98.42
63731;BME280;49747;51.334;6.830;2023-02-21T08:49:06;101492.91;;;10.12;97.51
63731;BME280;49747;51.334;6.830;2023-02-21T08:51:33;101492.47;;;10.20;97.02
63731;BME280;49747;51.334;6.830;2023-02-21T08:53:59;101494.84;;;10.24;96.07
63731;BME280;49747;51.334;6.830;2023-02-21T08:56:27;101492.56;;;10.18;96.67
63731;BME280;49747;51.334;6.830;2023-02-21T08:58:53;101490.66;;;10.20;96.91
63731;BME280;49747;51.334;6.830;2023-02-21T09:01:21;101481.84;;;10.20;97.03
63731;BME280;49747;51.334;6.830;2023-02-21T09:03:49;101483.34;;;10.25;96.47
63731;BME280;49747;51.334;6.830;2023-02-21T09:06:16;101474.06;;;9.55;99.62
63731;BME280;49747;51.334;6.830;2023-02-21T09:08:43;101486.91;;;9.62;100.00
63731;BME280;49747;51.334;6.830;2023-02-21T09:11:09;101491.56;;;9.89;99.21
63731;BME280;49747;51.334;6.830;2023-02-21T09:13:36;101492.75;;;9.99;98.20
63731;BME280;49747;51.334;6.830;2023-02-21T09:16:03;101490.66;;;9.90;98.66
63731;BME280;49747;51.334;6.830;2023-02-21T09:18:31;101490.63;;;10.06;98.39
63731;BME280;49747;51.334;6.830;2023-02-21T09:20:58;101478.09;;;10.08;98.70
63731;BME280;49747;51.334;6.830;2023-02-21T09:23:27;101485.44;;;10.19;97.42
63731;BME280;49747;51.334;6.830;2023-02-21T09:25:54;101482.22;;;10.14;97.21
63731;BME280;49747;51.334;6.830;2023-02-21T09:28:21;101487.03;;;10.21;97.02
63731;BME280;49747;51.334;6.830;2023-02-21T09:30:48;101481.09;;;10.18;96.88
63731;BME280;49747;51.334;6.830;2023-02-21T09:33:15;101472.72;;;10.25;95.95
63731;BME280;49747;51.334;6.830;2023-02-21T09:35:42;101469.78;;;10.30;95.45
63731;BME280;49747;51.334;6.830;2023-02-21T09:38:09;101471.53;;;10.45;94.73
63731;BME280;49747;51.334;6.830;2023-02-21T09:40:41;101467.97;;;10.45;94.18
63731;BME280;49747;51.334;6.830;2023-02-21T09:43:16;101464.03;;;10.52;94.29
63731;BME280;49747;51.334;6.830;2023-02-21T09:45:45;101454.63;;;10.46;94.21
63731;BME280;49747;51.334;6.830;2023-02-21T09:48:18;101459.78;;;10.49;93.86
63731;BME280;49747;51.334;6.830;2023-02-21T09:50:52;101462.13;;;10.54;94.51
63731;BME280;49747;51.334;6.830;2023-02-21T09:53:22;101467.50;;;10.38;95.99
63731;BME280;49747;51.334;6.830;2023-02-21T09:55:54;101463.13;;;10.37;95.75
63731;BME280;49747;51.334;6.830;2023-02-21T09:58:23;101454.13;;;10.40;95.02
63731;BME280;49747;51.334;6.830;2023-02-21T10:00:49;101468.25;;;10.40;94.99
63731;BME280;49747;51.334;6.830;2023-02-21T10:06:11;101462.28;;;10.36;94.92
63731;BME280;49747;51.334;6.830;2023-02-21T10:14:58;101469.16;;;10.25;96.75
63731;BME280;49747;51.334;6.830;2023-02-21T10:20:04;101468.25;;;10.40;95.83
63731;BME280;49747;51.334;6.830;2023-02-21T10:22:38;101463.06;;;10.39;96.18
63731;BME280;49747;51.334;6.830;2023-02-21T10:25:25;101470.38;;;10.19;96.68
63731;BME280;49747;51.334;6.830;2023-02-21T10:27:55;101463.25;;;9.90;99.61
63731;BME280;49747;51.334;6.830;2023-02-21T10:30:41;101459.13;;;9.84;100.00
63731;BME280;49747;51.334;6.830;2023-02-21T10:33:08;101467.88;;;10.16;97.45
63731;BME280;49747;51.334;6.830;2023-02-21T10:35:37;101455.28;;;10.20;97.14
63731;BME280;49747;51.334;6.830;2023-02-21T10:38:18;101465.31;;;10.30;97.65
63731;BME280;49747;51.334;6.830;2023-02-21T10:40:55;101460.91;;;10.45;96.16
63731;BME280;49747;51.334;6.830;2023-02-21T10:43:38;101455.13;;;10.67;95.07
63731;BME280;49747;51.334;6.830;2023-02-21T10:46:26;101464.72;;;10.70;93.39
63731;BME280;49747;51.334;6.830;2023-02-21T10:48:59;101465.66;;;10.69;93.54
63731;BME280;49747;51.334;6.830;2023-02-21T10:51:38;101461.97;;;10.71;93.45
63731;BME280;49747;51.334;6.830;2023-02-21T10:56:46;101458.84;;;10.79;92.94
63731;BME280;49747;51.334;6.830;2023-02-21T10:59:24;101462.91;;;10.84;92.34
63731;BME280;49747;51.334;6.830;2023-02-21T11:01:52;101451.91;;;10.76;92.49
63731;BME280;49747;51.334;6.830;2023-02-21T11:14:36;101452.84;;;10.75;92.18
63731;BME280;49747;51.334;6.830;2023-02-21T11:17:22;101448.13;;;10.95;91.07
63731;BME280;49747;51.334;6.830;2023-02-21T11:19:55;101442.38;;;11.01;90.26
63731;BME280;49747;51.334;6.830;2023-02-21T11:22:42;101440.13;;;10.80;89.93
63731;BME280;49747;51.334;6.830;2023-02-21T11:30:24;101437.94;;;10.58;91.79
63731;BME280;49747;51.334;6.830;2023-02-21T11:32:54;101440.78;;;10.84;90.99
63731;BME280;49747;51.334;6.830;2023-02-21T11:35:32;101433.13;;;10.94;90.20
63731;BME280;49747;51.334;6.830;2023-02-21T11:38:03;101438.72;;;10.89;89.38
63731;BME280;49747;51.334;6.830;2023-02-21T11:40:46;101431.78;;;10.72;89.82
63731;BME280;49747;51.334;6.830;2023-02-21T11:43:25;101425.50;;;10.88;89.79
63731;BME280;49747;51.334;6.830;2023-02-21T11:48:36;101414.22;;;10.98;88.83
63731;BME280;49747;51.334;6.830;2023-02-21T11:51:12;101398.06;;;11.01;89.70
63731;BME280;49747;51.334;6.830;2023-02-21T11:53:43;101411.19;;;10.90;89.88
63731;BME280;49747;51.334;6.830;2023-02-21T11:56:37;101396.75;;;10.80;89.83
63731;BME280;49747;51.334;6.830;2023-02-21T11:59:26;101392.88;;;10.85;90.02
63731;BME280;49747;51.334;6.830;2023-02-21T12:10:43;101398.94;;;10.88;89.95
63731;BME280;49747;51.334;6.830;2023-02-21T12:19:14;101385.25;;;10.94;89.57
63731;BME280;49747;51.334;6.830;2023-02-21T12:21:58;101359.84;;;10.90;89.15
63731;BME280;49747;51.334;6.830;2023-02-21T12:27:52;101382.25;;;11.13;88.16
63731;BME280;49747;51.334;6.830;2023-02-21T12:30:50;101374.69;;;11.06;88.59
63731;BME280;49747;51.334;6.830;2023-02-21T12:36:32;101364.91;;;11.07;88.89
63731;BME280;49747;51.334;6.830;2023-02-21T12:47:00;101364.75;;;10.96;90.31
63731;BME280;49747;51.334;6.830;2023-02-21T12:49:44;101358.56;;;11.09;89.58
63731;BME280;49747;51.334;6.830;2023-02-21T12:52:40;101353.78;;;11.15;88.92
63731;BME280;49747;51.334;6.830;2023-02-21T12:55:25;101350.81;;;11.19;88.76
63731;BME280;49747;51.334;6.830;2023-02-21T12:57:53;101351.97;;;11.15;89.01
63731;BME280;49747;51.334;6.830;2023-02-21T13:00:25;101353.47;;;11.19;88.86
63731;BME280;49747;51.334;6.830;2023-02-21T13:03:08;101355.00;;;11.09;88.77
63731;BME280;49747;51.334;6.830;2023-02-21T13:05:59;101342.31;;;11.14;88.86
63731;BME280;49747;51.334;6.830;2023-02-21T13:08:31;101346.00;;;11.12;88.54
63731;BME280;49747;51.334;6.830;2023-02-21T13:11:20;101340.50;;;11.00;89.58
63731;BME280;49747;51.334;6.830;2023-02-21T13:13:47;101342.88;;;11.05;89.17
63731;BME280;49747;51.334;6.830;2023-02-21T13:16:14;101344.19;;;11.12;88.62
63731;BME280;49747;51.334;6.830;2023-02-21T13:18:56;101334.75;;;11.21;88.09
63731;BME280;49747;51.334;6.830;2023-02-21T13:24:47;101340.38;;;11.16;88.77
63731;BME280;49747;51.334;6.830;2023-02-21T13:32:58;101334.41;;;11.13;89.14
63731;BME280;49747;51.334;6.830;2023-02-21T13:35:33;101327.09;;;11.16;88.46
63731;BME280;49747;51.334;6.830;2023-02-21T13:38:04;101311.63;;;11.08;89.02
63731;BME280;49747;51.334;6.830;2023-02-21T13:43:02;101307.91;;;11.11;89.07
63731;BME280;49747;51.334;6.830;2023-02-21T13:45:30;101320.97;;;11.28;88.84
63731;BME280;49747;51.334;6.830;2023-02-21T13:53:22;101304.97;;;11.16;88.64
63731;BME280;49747;51.334;6.830;2023-02-21T13:58:40;101294.44;;;11.14;89.37
63731;BME280;49747;51.334;6.830;2023-02-21T14:01:20;101298.59;;;11.18;89.04
63731;BME280;49747;51.334;6.830;2023-02-21T14:03:54;101289.78;;;11.18;88.97
63731;BME280;49747;51.334;6.830;2023-02-21T14:08:53;101282.53;;;11.20;89.36
63731;BME280;49747;51.334;6.830;2023-02-21T14:11:26;101287.19;;;11.16;89.26
63731;BME280;49747;51.334;6.830;2023-02-21T14:13:59;101282.84;;;11.15;89.65
63731;BME280;49747;51.334;6.830;2023-02-21T14:16:45;101277.97;;;11.22;89.27
63731;BME280;49747;51.334;6.830;2023-02-21T14:19:23;101280.53;;;11.23;88.79
63731;BME280;49747;51.334;6.830;2023-02-21T14:22:23;101277.34;;;11.31;88.89
63731;BME280;49747;51.334;6.830;2023-02-21T14:25:03;101275.00;;;11.26;89.06
63731;BME280;49747;51.334;6.830;2023-02-21T14:27:33;101277.47;;;11.29;89.15
63731;BME280;49747;51.334;6.830;2023-02-21T14:32:47;101273.03;;;11.16;89.56
63731;BME280;49747;51.334;6.830;2023-02-21T14:37:50;101272.34;;;10.99;90.92
63731;BME280;49747;51.334;6.830;2023-02-21T14:40:33;101272.59;;;11.09;90.55
63731;BME280;49747;51.334;6.830;2023-02-21T15:02:34;101259.66;;;10.90;91.38
63731;BME280;49747;51.334;6.830;2023-02-21T15:05:15;101260.31;;;10.94;91.26
63731;BME280;49747;51.334;6.830;2023-02-21T15:07:54;101263.53;;;10.99;91.15
63731;BME280;49747;51.334;6.830;2023-02-21T15:10:28;101222.00;;;10.83;90.60
63731;BME280;49747;51.334;6.830;2023-02-21T15:13:00;101255.00;;;10.94;91.34
63731;BME280;49747;51.334;6.830;2023-02-21T15:15:35;101254.69;;;10.98;91.13
63731;BME280;49747;51.334;6.830;2023-02-21T15:18:10;101242.56;;;10.94;90.81
63731;BME280;49747;51.334;6.830;2023-02-21T15:20:39;101250.03;;;11.02;90.54
63731;BME280;49747;51.334;6.830;2023-02-21T15:25:40;101244.38;;;10.94;91.17
63731;BME280;49747;51.334;6.830;2023-02-21T15:28:20;101245.53;;;10.90;91.66
63731;BME280;49747;51.334;6.830;2023-02-21T15:30:59;101240.94;;;10.92;91.32
63731;BME280;49747;51.334;6.830;2023-02-21T15:33:39;101242.66;;;10.93;91.49
63731;BME280;49747;51.334;6.830;2023-02-21T15:36:14;101244.69;;;10.89;91.33